Main page
METAR-TAF:

Airports :

London-Luton, England

Luton Airport

latitude: 51-52N, longitude: 000-22W, elevation: 160 m

Current weather observation

The report was made 32 minutes ago, at 23:20 UTC
Wind 8 kt from the West
Temperature 7°C
Humidity 81%
Pressure 1027 hPa
Visibility 10 km or more

METAR: EGGW 032320Z AUTO 26008KT 9999 NCD 07/04 Q1027

Time: 00:52 (23:52 UTC)

Forecast

The report was made 55 minutes ago, at 22:57 UTC
Forecast valid from 04 at 00 UTC to 04 at 24 UTC
Wind 5 kt from the Southwest
Visibility 10 km or more
Few clouds at a height of 4500 ft
Becoming
from 04 at 06 UTC to 04 at 09 UTC
Wind 10 kt from the South/Southeast

TAF: EGGW 032257Z 0400/0424 22005KT 9999 FEW045 BECMG 0406/0409 16010KT

METAR-TAF

Weather observations and forecasts of more than 4000 airports (METAR and TAF reports).

The available stations are represented by yellow and red dots on the map.

Hover mouse over dot to see the name of the station.

Then click to see weather observations and forecasts.

To change the map : click on the green buttons with a black cross to zoom in, on the green button with a dash to zoom out, or on the green arrows for adjacent maps.


METAR-TAF: